Aviation Digital Data Service (ADDS)

Output produced by METARs form (1824 UTC 22 November 2017)
found at http://www.aviationweather.gov/adds/metars/
 
VYMD 221330Z 32003KT 6000 BKN018 FEW020CB 26/22 Q1008
TAF VYMD 221100Z 2212/2312 32003KT 7000 BKN020 FEW025CB 
     TEMPO 2212/2218 34005KT 6000 BKN018 FEW020CB BKN100
       
VYYY 221800Z 05006KT 6000 BKN015 FEW018CB BKN100 24/23 Q1009
TAF VYYY 221700Z 2218/2318 03005KT 8000 BKN015 FEW020CB BKN100 
     BECMG 2223/2301 4000 BR 
     TEMPO 2304/2310 14007KT 4000 TSRA BKN011 FEW018CB OVC090